Time;durP1;ratioP1;P1;durP2;ratioP2;P2;SDS_P1;SDS_P2;PMS_P1;PMS_P2;Temp;Humidity;BMP_temperature;BMP_pressure;BME280_temperature;BME280_humidity;BME280_pressure;Samples;Min_cycle;Max_cycle;Signal;HPM_P1;HPM_P2
2022/11/28 00:01:11;;;;;;;7.75;3.13;;;;;;;-5.31;95.76;102917.41;10611241;28;20514;-78
2022/11/28 00:06:14;;;;;;;8.07;3.70;;;;;;;-5.28;96.05;102912.69;10623132;28;20054;-77
2022/11/28 00:11:16;;;;;;;6.45;2.92;;;;;;;-5.25;95.82;102906.22;10621425;28;20036;-76
2022/11/28 00:16:20;;;;;;;6.07;3.03;;;;;;;-5.22;95.76;102898.78;10622417;28;20044;-76
2022/11/28 00:21:22;;;;;;;7.97;3.63;;;;;;;-5.23;96.61;102902.44;10600406;28;20438;-78
2022/11/28 00:26:28;;;;;;;8.70;4.18;;;;;;;-5.19;95.90;102905.75;10614823;28;20047;-78
2022/11/28 00:31:34;;;;;;;4.95;3.22;;;;;;;-5.18;95.54;102912.81;10592403;28;20429;-78
2022/11/28 00:36:36;;;;;;;7.20;3.55;;;;;;;-5.20;95.62;102904.91;10609330;28;20122;-76
2022/11/28 00:41:39;;;;;;;7.07;3.35;;;;;;;-5.21;95.99;102896.97;10604080;28;20051;-76
2022/11/28 00:46:41;;;;;;;3.85;2.72;;;;;;;-5.20;96.21;102910.25;10609492;28;20043;-76
2022/11/28 00:51:43;;;;;;;7.00;3.20;;;;;;;-5.14;95.77;102918.75;10618117;28;20509;-76
2022/11/28 00:56:45;;;;;;;5.80;3.25;;;;;;;-5.14;95.99;102902.69;10615131;28;20043;-78
2022/11/28 01:01:48;;;;;;;5.80;3.10;;;;;;;-5.09;95.67;102913.88;10611698;28;20044;-76
2022/11/28 01:06:50;;;;;;;6.40;2.42;;;;;;;-5.04;95.76;102915.19;10628967;27;20039;-76
2022/11/28 01:11:53;;;;;;;6.10;3.08;;;;;;;-5.05;95.62;102912.66;10615030;28;20051;-77
2022/11/28 01:16:55;;;;;;;6.28;2.78;;;;;;;-5.09;95.70;102913.88;10616756;28;20040;-77
2022/11/28 01:21:57;;;;;;;5.93;3.47;;;;;;;-5.08;95.34;102912.91;10584869;28;20525;-77
2022/11/28 01:27:00;;;;;;;5.65;3.13;;;;;;;-5.05;95.83;102912.66;10573665;28;20040;-77
2022/11/28 01:32:06;;;;;;;5.43;2.60;;;;;;;-5.07;95.63;102914.59;10579597;28;20075;-77
2022/11/28 01:37:12;;;;;;;6.22;3.58;;;;;;;-5.07;95.34;102914.59;10598638;28;20046;-78
2022/11/28 01:42:18;;;;;;;6.10;2.75;;;;;;;-5.05;95.47;102924.22;10615882;28;20051;-78
2022/11/28 01:47:23;;;;;;;3.05;1.88;;;;;;;-5.04;95.17;102917.88;10608775;28;20035;-78
2022/11/28 01:52:29;;;;;;;6.45;2.85;;;;;;;-5.07;95.62;102920.81;10595713;28;20406;-77
2022/11/28 01:57:35;;;;;;;6.63;2.58;;;;;;;-5.10;95.34;102914.84;10615602;28;20042;-78
2022/11/28 02:02:41;;;;;;;4.70;2.90;;;;;;;-5.13;94.83;102917.78;10623880;27;20051;-76
2022/11/28 02:07:48;;;;;;;3.65;2.22;;;;;;;-5.16;95.53;102919.72;10610825;28;20051;-77
2022/11/28 02:13:07;;;;;;;3.10;1.77;;;;;;;-5.21;95.06;102927.28;10583171;28;20510;-77
2022/11/28 02:18:43;;;;;;;5.20;2.80;;;;;;;-5.23;95.07;102926.53;10572265;28;20039;-76
2022/11/28 02:24:26;;;;;;;4.00;2.50;;;;;;;-5.25;95.57;102927.63;10574059;28;20036;-77
2022/11/28 02:30:05;;;;;;;4.78;2.63;;;;;;;-5.24;95.09;102938.22;10561858;28;20039;-76
2022/11/28 02:35:19;;;;;;;6.28;3.55;;;;;;;-5.27;94.78;102922.41;10597632;28;20498;-76
2022/11/28 02:40:39;;;;;;;7.00;3.15;;;;;;;-5.30;95.18;102928.00;10596468;28;20070;-78
2022/11/28 02:45:49;;;;;;;8.18;3.58;;;;;;;-5.28;95.37;102912.69;10631951;27;20038;-76
2022/11/28 02:51:02;;;;;;;4.85;3.15;;;;;;;-5.28;95.98;102927.88;10610085;28;20050;-76
2022/11/28 02:56:05;;;;;;;9.00;4.53;;;;;;;-5.31;95.23;102918.28;10602445;28;20043;-75
2022/11/28 03:01:35;;;;;;;9.23;4.30;;;;;;;-5.33;95.41;102919.38;10596303;28;20036;-76
2022/11/28 03:07:10;;;;;;;7.28;2.85;;;;;;;-5.34;95.50;102931.91;10607503;28;20054;-75
2022/11/28 03:12:23;;;;;;;7.40;3.75;;;;;;;-5.33;95.95;102933.59;10586170;28;20110;-76
2022/11/28 03:17:43;;;;;;;5.05;2.33;;;;;;;-5.39;95.64;102950.13;10610405;28;20039;-76
2022/11/28 03:23:05;;;;;;;6.22;3.30;;;;;;;-5.45;95.65;102950.59;10574305;28;20047;-77
2022/11/28 03:28:13;;;;;;;4.70;2.88;;;;;;;-5.50;95.53;102950.13;10594499;28;20059;-77
2022/11/28 03:33:16;;;;;;;4.43;2.57;;;;;;;-5.56;95.73;102951.44;10602931;28;20413;-76
2022/11/28 03:38:23;;;;;;;4.95;3.03;;;;;;;-5.60;95.99;102957.16;10599331;28;20046;-76
2022/11/28 03:43:29;;;;;;;4.30;2.88;;;;;;;-5.72;95.86;102960.78;10608070;28;20051;-76
2022/11/28 03:48:37;;;;;;;3.88;2.20;;;;;;;-5.92;95.71;102952.47;10595338;28;20414;-77
2022/11/28 03:54:00;;;;;;;4.57;2.67;;;;;;;-6.00;95.29;102956.72;10603432;28;20027;-77
2022/11/28 03:59:24;;;;;;;5.65;3.45;;;;;;;-6.08;95.40;102966.16;10603918;28;20036;-77
2022/11/28 04:05:00;;;;;;;5.15;2.72;;;;;;;-6.17;96.30;102971.34;10604599;28;20047;-77
2022/11/28 04:10:02;;;;;;;5.65;3.42;;;;;;;-6.23;96.65;102982.50;10609627;28;20418;-78
2022/11/28 04:15:18;;;;;;;5.68;4.18;;;;;;;-6.30;96.59;102973.22;10600258;28;20040;-79
2022/11/28 04:20:29;;;;;;;5.05;3.20;;;;;;;-6.27;96.70;102981.00;10610871;28;20044;-78
2022/11/28 04:25:35;;;;;;;5.90;3.28;;;;;;;-6.26;97.01;102980.88;10617874;28;20042;-76
2022/11/28 04:30:38;;;;;;;5.78;3.20;;;;;;;-6.21;97.09;102985.91;10591611;28;20055;-77
2022/11/28 04:35:44;;;;;;;4.30;2.83;;;;;;;-6.18;97.12;102996.34;10601415;28;20040;-77
2022/11/28 04:40:59;;;;;;;5.45;3.33;;;;;;;-6.18;97.64;102993.69;10612614;28;20387;-76
2022/11/28 04:46:12;;;;;;;4.38;2.88;;;;;;;-6.17;97.41;102993.56;10607760;27;20031;-78
2022/11/28 04:51:29;;;;;;;5.07;3.22;;;;;;;-6.17;97.23;102990.03;10620483;27;20379;-78
2022/11/28 04:56:53;;;;;;;5.40;3.00;;;;;;;-6.17;97.53;102992.72;10610428;28;20039;-77
2022/11/28 05:01:57;;;;;;;4.75;2.97;;;;;;;-6.14;97.73;102997.84;10615798;28;20524;-78
2022/11/28 05:07:01;;;;;;;5.57;3.22;;;;;;;-6.10;97.54;102993.94;10617292;28;20486;-78
2022/11/28 05:12:03;;;;;;;6.50;3.25;;;;;;;-6.10;98.07;102988.59;10616276;27;20052;-78
2022/11/28 05:17:06;;;;;;;4.57;3.22;;;;;;;-6.08;97.79;102997.34;10629933;27;20452;-78
2022/11/28 05:22:09;;;;;;;6.13;3.63;;;;;;;-6.11;98.13;102986.91;10602138;28;20036;-78
2022/11/28 05:27:11;;;;;;;6.57;3.75;;;;;;;-6.13;97.89;102997.72;10583689;28;20055;-78
2022/11/28 05:32:14;;;;;;;6.15;3.70;;;;;;;-6.13;98.28;102999.53;10625048;27;20502;-77
2022/11/28 05:37:16;;;;;;;5.93;3.45;;;;;;;-6.10;98.39;103020.69;10605959;28;20040;-77
2022/11/28 05:42:18;;;;;;;6.97;3.50;;;;;;;-6.13;98.76;103010.22;10619273;27;20417;-77
2022/11/28 05:47:22;;;;;;;6.55;3.70;;;;;;;-6.10;98.82;103012.66;10595839;28;20528;-84
2022/11/28 05:52:24;;;;;;;5.32;3.03;;;;;;;-6.09;98.81;103020.56;10614634;27;20047;-79
2022/11/28 05:57:28;;;;;;;5.03;3.58;;;;;;;-5.99;98.31;103025.25;10615133;28;20375;-78
2022/11/28 06:02:30;;;;;;;6.72;3.25;;;;;;;-6.05;98.36;103031.91;10613058;28;20051;-78
2022/11/28 06:07:33;;;;;;;5.82;3.80;;;;;;;-6.10;98.94;103044.72;10615030;27;20058;-78
2022/11/28 06:12:35;;;;;;;5.28;3.92;;;;;;;-6.15;98.52;103044.22;10614803;28;20047;-78
2022/11/28 06:17:37;;;;;;;3.70;2.80;;;;;;;-6.23;98.45;103043.94;10592699;28;20042;-78
2022/11/28 06:22:39;;;;;;;5.28;3.00;;;;;;;-6.22;98.18;103042.97;10575218;28;20047;-79
2022/11/28 06:27:41;;;;;;;4.70;2.60;;;;;;;-6.24;98.69;103029.75;10613100;28;20035;-78
2022/11/28 06:32:43;;;;;;;4.70;2.50;;;;;;;-6.22;98.56;103029.63;10613304;28;20228;-79
2022/11/28 06:37:46;;;;;;;5.00;3.40;;;;;;;-6.18;98.31;103031.09;10584186;28;20048;-79
2022/11/28 06:42:49;;;;;;;5.53;2.85;;;;;;;-6.15;98.89;103041.56;10570100;28;20418;-77
2022/11/28 06:47:52;;;;;;;6.00;3.28;;;;;;;-6.12;98.61;103036.84;10573966;28;20525;-78
2022/11/28 06:52:56;;;;;;;5.43;3.30;;;;;;;-6.06;98.93;103038.22;10597884;28;20052;-78
2022/11/28 06:57:59;;;;;;;5.60;3.05;;;;;;;-6.04;99.06;103038.09;10571200;28;20052;-79
2022/11/28 07:03:01;;;;;;;6.15;3.42;;;;;;;-6.02;98.59;103045.03;10594117;28;20043;-78
2022/11/28 07:08:04;;;;;;;6.18;3.88;;;;;;;-5.96;99.52;103043.72;10612554;28;20039;-78
2022/11/28 07:13:07;;;;;;;4.38;2.70;;;;;;;-5.91;99.59;103038.88;10553229;28;20055;-78
2022/11/28 07:18:09;;;;;;;6.25;3.70;;;;;;;-5.90;99.45;103045.91;10568634;28;20047;-78
2022/11/28 07:23:12;;;;;;;6.25;3.72;;;;;;;-5.88;99.25;103034.13;10535287;28;20048;-78
2022/11/28 07:28:14;;;;;;;6.50;4.13;;;;;;;-5.83;100.00;103036.47;10570704;28;20063;-79
2022/11/28 07:33:16;;;;;;;8.30;3.63;;;;;;;-5.84;99.58;103038.28;10596183;28;20055;-78
2022/11/28 07:38:18;;;;;;;6.20;4.32;;;;;;;-5.77;99.63;103052.88;10602924;28;20035;-78
2022/11/28 07:43:20;;;;;;;4.70;2.45;;;;;;;-5.78;99.94;103037.81;10610559;28;20043;-78
2022/11/28 07:48:23;;;;;;;3.42;2.33;;;;;;;-5.77;99.70;103038.66;10610125;28;20039;-78
2022/11/28 07:53:25;;;;;;;5.68;3.20;;;;;;;-5.74;99.88;103043.78;10613357;28;20044;-78
2022/11/28 07:58:27;;;;;;;5.20;3.60;;;;;;;-5.69;99.79;103038.09;10620359;28;20047;-79
2022/11/28 08:03:29;;;;;;;5.40;3.70;;;;;;;-5.65;99.72;103044.91;10584470;28;20051;-78
2022/11/28 08:08:32;;;;;;;5.55;3.60;;;;;;;-5.62;99.51;103042.00;10577271;28;20032;-78
2022/11/28 08:13:36;;;;;;;3.97;2.53;;;;;;;-5.62;99.22;103024.13;10611522;27;20043;-78
2022/11/28 08:18:38;;;;;;;5.97;3.10;;;;;;;-5.55;98.82;103028.06;10601773;27;20044;-78
2022/11/28 08:23:40;;;;;;;4.72;3.15;;;;;;;-5.50;98.48;103022.34;10577214;28;20426;-78
2022/11/28 08:28:43;;;;;;;5.43;3.17;;;;;;;-5.43;97.95;103031.59;10575500;28;20130;-79
2022/11/28 08:33:47;;;;;;;4.68;3.30;;;;;;;-5.38;98.15;103028.56;10558908;28;20062;-78
2022/11/28 08:38:49;;;;;;;6.47;4.18;;;;;;;-5.33;97.55;103047.81;10575007;28;20043;-79
2022/11/28 08:43:52;;;;;;;4.28;2.72;;;;;;;-5.29;97.22;103031.38;10614770;28;20051;-79
2022/11/28 08:48:54;;;;;;;5.75;3.55;;;;;;;-5.27;96.70;103040.16;10618467;28;20047;-79
2022/11/28 08:53:56;;;;;;;5.88;4.03;;;;;;;-5.21;96.43;103036.13;10585623;28;20056;-79
2022/11/28 08:58:58;;;;;;;5.15;3.00;;;;;;;-5.18;96.14;103030.56;10584830;28;20058;-79
2022/11/28 09:04:00;;;;;;;6.97;4.03;;;;;;;-5.19;96.02;103042.25;10616682;28;20043;-78
2022/11/28 09:09:03;;;;;;;6.60;4.00;;;;;;;-5.24;95.93;103026.53;10601616;28;20498;-79
2022/11/28 09:14:05;;;;;;;4.00;3.15;;;;;;;-5.19;95.64;103029.72;10608959;28;20494;-79
2022/11/28 09:19:09;;;;;;;5.18;3.63;;;;;;;-5.20;95.17;103036.03;10615832;28;20059;-78
2022/11/28 09:24:12;;;;;;;6.93;4.28;;;;;;;-5.21;95.22;103045.03;10616909;28;20048;-78
2022/11/28 09:29:15;;;;;;;7.38;3.97;;;;;;;-5.19;94.84;103044.94;10632351;27;20039;-78
2022/11/28 09:34:17;;;;;;;7.25;3.90;;;;;;;-5.16;94.57;103042.84;10614946;28;20055;-78
2022/11/28 09:39:21;;;;;;;6.22;3.65;;;;;;;-5.10;94.51;103032.63;10615978;28;20409;-79
2022/11/28 09:44:27;;;;;;;6.60;4.00;;;;;;;-5.05;94.31;103041.16;10589725;28;20502;-78
2022/11/28 09:49:31;;;;;;;5.13;3.78;;;;;;;-5.09;94.67;103042.38;10592053;28;20039;-77
2022/11/28 09:54:43;;;;;;;5.15;3.22;;;;;;;-5.09;94.33;103045.03;10602950;28;20035;-78
2022/11/28 09:59:45;;;;;;;6.80;3.80;;;;;;;-5.10;94.02;103038.00;10574856;28;20042;-78
2022/11/28 10:05:07;;;;;;;5.35;3.67;;;;;;;-5.11;93.71;103039.81;10619672;28;20387;-78
2022/11/28 10:10:38;;;;;;;7.18;3.90;;;;;;;-5.08;93.66;103041.38;10644471;27;20034;-78
2022/11/28 10:15:53;;;;;;;5.95;4.20;;;;;;;-5.07;93.78;103024.34;10626042;27;20097;-78
2022/11/28 10:21:00;;;;;;;5.82;3.88;;;;;;;-5.02;94.03;103028.41;10577436;28;20051;-79
2022/11/28 10:26:06;;;;;;;6.00;3.47;;;;;;;-5.00;93.72;103014.88;10586669;28;20051;-79
2022/11/28 10:31:20;;;;;;;2.72;1.30;;;;;;;-4.96;93.87;103027.91;10619679;28;20054;-78
2022/11/28 10:37:00;;;;;;;6.65;3.58;;;;;;;-4.97;93.35;103028.03;10584619;28;20039;-77
2022/11/28 10:42:18;;;;;;;7.45;4.05;;;;;;;-4.96;93.96;103025.22;10573526;28;20051;-79
2022/11/28 10:47:38;;;;;;;6.70;3.80;;;;;;;-4.94;93.79;103017.91;10594491;27;20043;-77
2022/11/28 10:52:49;;;;;;;6.35;2.80;;;;;;;-4.92;94.21;103013.28;10586596;28;20058;-79
2022/11/28 10:58:12;;;;;;;4.13;2.92;;;;;;;-4.87;93.75;103015.59;10611450;28;20031;-77
2022/11/28 11:03:16;;;;;;;5.60;3.30;;;;;;;-4.83;93.73;103021.59;10612133;28;20417;-79
2022/11/28 11:08:21;;;;;;;6.72;3.90;;;;;;;-4.79;93.94;103026.56;10591755;28;20422;-79
2022/11/28 11:13:29;;;;;;;5.90;3.47;;;;;;;-4.77;93.70;103021.94;10608228;28;20039;-79
2022/11/28 11:18:35;;;;;;;5.93;3.28;;;;;;;-4.76;93.34;103028.16;10592433;28;20044;-79
2022/11/28 11:23:37;;;;;;;3.88;2.35;;;;;;;-4.76;93.12;103037.03;10635175;27;20051;-79
2022/11/28 11:28:42;;;;;;;4.82;3.55;;;;;;;-4.75;92.98;103040.56;10613481;27;20061;-78
2022/11/28 11:33:45;;;;;;;3.30;2.03;;;;;;;-4.75;92.61;103036.06;10599961;28;20048;-81
2022/11/28 11:38:47;;;;;;;5.68;3.33;;;;;;;-4.70;92.84;103036.53;10618860;28;20395;-80
2022/11/28 11:43:49;;;;;;;8.05;3.50;;;;;;;-4.69;92.81;103042.75;10615512;28;20054;-81
2022/11/28 11:48:52;;;;;;;7.22;3.88;;;;;;;-4.63;92.82;103052.97;10605854;28;20421;-80
2022/11/28 11:54:12;;;;;;;6.03;3.30;;;;;;;-4.61;92.82;103045.69;10609406;28;20418;-79
2022/11/28 11:59:20;;;;;;;6.68;3.22;;;;;;;-4.61;92.42;103051.03;10616623;28;20035;-80
2022/11/28 12:04:46;;;;;;;5.80;3.47;;;;;;;-4.57;91.60;103047.97;10616320;28;20111;-80
2022/11/28 12:09:51;;;;;;;8.02;3.22;;;;;;;-4.55;91.88;103050.53;10574334;28;20048;-79
2022/11/28 12:14:54;;;;;;;11.52;4.07;;;;;;;-4.55;91.39;103058.56;10610769;28;20540;-81
2022/11/28 12:20:05;;;;;;;4.00;2.42;;;;;;;-4.47;91.37;103060.66;10603652;28;20040;-82
2022/11/28 12:25:22;;;;;;;4.25;2.45;;;;;;;-4.47;91.36;103061.50;10588101;28;20048;-80
2022/11/28 12:30:53;;;;;;;5.50;3.42;;;;;;;-4.45;90.96;103061.38;10594251;28;20047;-76
2022/11/28 12:36:13;;;;;;;3.38;1.98;;;;;;;-4.47;91.13;103064.19;10574600;28;20469;-76
2022/11/28 12:41:28;;;;;;;3.47;2.17;;;;;;;-4.46;90.68;103062.34;10597956;27;20055;-78
2022/11/28 12:46:46;;;;;;;5.05;2.78;;;;;;;-4.44;90.92;103065.75;10598208;28;20052;-77
2022/11/28 12:52:19;;;;;;;6.47;3.83;;;;;;;-4.43;90.58;103068.31;10597739;28;20060;-76
2022/11/28 12:57:40;;;;;;;5.80;3.40;;;;;;;-4.35;90.54;103057.81;10608827;28;20128;-77
2022/11/28 13:03:20;;;;;;;7.85;3.40;;;;;;;-4.33;90.57;103061.25;10587020;28;20276;-79
2022/11/28 13:08:33;;;;;;;4.70;2.47;;;;;;;-4.30;90.70;103076.22;10610159;28;20036;-76
2022/11/28 13:14:11;;;;;;;2.60;1.73;;;;;;;-4.26;90.24;103075.00;10557610;28;20391;-77
2022/11/28 13:19:33;;;;;;;5.57;3.38;;;;;;;-4.26;90.17;103085.72;10603389;27;20040;-75
2022/11/28 13:25:02;;;;;;;3.42;1.75;;;;;;;-4.24;90.25;103083.75;10611028;28;20065;-77
2022/11/28 13:30:19;;;;;;;4.72;2.72;;;;;;;-4.23;90.31;103080.09;10612969;27;20042;-78
2022/11/28 13:35:22;;;;;;;7.85;4.53;;;;;;;-4.26;89.85;103088.41;10612054;27;20070;-78
2022/11/28 13:40:27;;;;;;;3.63;1.92;;;;;;;-4.26;90.32;103091.06;10616804;27;20623;-78
2022/11/28 13:45:31;;;;;;;5.57;2.55;;;;;;;-4.25;89.94;103090.94;10622291;27;20050;-78
2022/11/28 13:50:36;;;;;;;4.80;2.70;;;;;;;-4.21;90.00;103094.22;10603146;28;20053;-78
2022/11/28 13:55:39;;;;;;;2.58;1.35;;;;;;;-4.23;90.22;103093.50;10596980;27;20067;-78
2022/11/28 14:00:43;;;;;;;6.53;3.70;;;;;;;-4.23;90.28;103090.81;10606408;27;20035;-77
2022/11/28 14:05:45;;;;;;;5.88;3.28;;;;;;;-4.23;89.82;103092.66;10621236;27;20043;-76
2022/11/28 14:10:53;;;;;;;1.20;0.95;;;;;;;-4.19;90.36;103100.31;10610595;27;20520;-76
2022/11/28 14:16:41;;;;;;;5.38;2.97;;;;;;;-4.19;90.16;103103.00;10632201;27;20233;-77
2022/11/28 14:22:07;;;;;;;5.28;2.55;;;;;;;-4.14;90.40;103102.66;10627382;27;20498;-77
2022/11/28 14:27:33;;;;;;;7.68;3.55;;;;;;;-4.12;90.41;103098.84;10622735;27;20055;-76
2022/11/28 14:32:38;;;;;;;3.40;2.00;;;;;;;-4.12;90.26;103106.91;10544092;27;20374;-76
2022/11/28 14:37:54;;;;;;;5.47;2.78;;;;;;;-4.11;90.03;103108.59;10593487;28;20043;-76
2022/11/28 14:43:20;;;;;;;5.72;3.35;;;;;;;-4.10;90.68;103104.94;10600364;28;20047;-77
2022/11/28 14:48:23;;;;;;;5.68;2.85;;;;;;;-4.10;90.53;103104.09;10553763;28;20052;-76
2022/11/28 14:53:34;;;;;;;6.38;3.55;;;;;;;-4.10;91.05;103107.63;10569886;28;20032;-75
2022/11/28 14:58:37;;;;;;;1.42;1.17;;;;;;;-4.14;90.38;103103.50;10589252;28;20516;-75
2022/11/28 15:04:09;;;;;;;1.58;1.48;;;;;;;-4.11;90.93;103099.72;10582621;28;20066;-77
2022/11/28 15:09:35;;;;;;;8.45;4.68;;;;;;;-4.08;90.72;103102.13;10568716;28;20418;-76
2022/11/28 15:14:38;;;;;;;5.70;2.83;;;;;;;-4.07;90.71;103107.38;10551638;28;20066;-77
2022/11/28 15:19:46;;;;;;;5.90;2.38;;;;;;;-4.09;90.97;103120.06;10572833;28;20039;-77
2022/11/28 15:24:51;;;;;;;4.83;2.87;;;;;;;-4.06;91.03;103110.91;10578442;28;20394;-77
2022/11/28 15:29:59;;;;;;;3.28;1.85;;;;;;;-4.01;90.89;103112.22;10592776;28;20051;-77
2022/11/28 15:35:04;;;;;;;1.90;1.40;;;;;;;-4.02;91.15;103110.53;10609846;28;20035;-76
2022/11/28 15:40:15;;;;;;;6.47;3.67;;;;;;;-4.02;90.69;103115.03;10592015;28;20054;-78
2022/11/28 15:45:29;;;;;;;6.68;2.45;;;;;;;-3.96;90.98;103117.22;10569829;28;20044;-77
2022/11/28 15:50:32;;;;;;;4.65;2.53;;;;;;;-3.97;91.06;103119.06;10567463;28;20406;-76
2022/11/28 15:55:35;;;;;;;4.60;1.92;;;;;;;-3.96;91.00;103118.09;10568918;28;20048;-76
2022/11/28 16:00:40;;;;;;;6.45;3.63;;;;;;;-3.89;91.35;103118.41;10553723;28;20047;-77
2022/11/28 16:05:44;;;;;;;5.53;3.40;;;;;;;-3.84;91.10;103110.84;10565465;28;20060;-79
2022/11/28 16:10:47;;;;;;;5.57;3.45;;;;;;;-3.86;90.94;103122.69;10606827;28;20453;-78
2022/11/28 16:15:51;;;;;;;3.03;1.98;;;;;;;-3.85;91.26;103119.88;10602831;28;20054;-78
2022/11/28 16:20:55;;;;;;;5.30;2.45;;;;;;;-3.86;91.21;103128.91;10631361;27;20054;-76
2022/11/28 16:26:38;;;;;;;6.10;2.45;;;;;;;-3.84;91.31;103126.09;10606491;28;20055;-74
2022/11/28 16:31:46;;;;;;;2.35;1.58;;;;;;;-3.84;90.87;103118.88;10611241;27;20062;-76
2022/11/28 16:36:49;;;;;;;7.38;4.28;;;;;;;-3.86;90.93;103128.03;10605861;27;20045;-76
2022/11/28 16:42:11;;;;;;;8.27;3.40;;;;;;;-3.89;91.18;103126.47;10596631;28;20039;-78
2022/11/28 16:47:32;;;;;;;4.78;3.13;;;;;;;-3.91;91.27;103127.56;10616714;28;20432;-78
2022/11/28 16:52:49;;;;;;;6.72;3.47;;;;;;;-3.89;91.61;103123.78;10617651;28;20051;-78
2022/11/28 16:58:11;;;;;;;4.30;2.60;;;;;;;-3.88;91.48;103121.97;10610338;28;20043;-77
2022/11/28 17:03:43;;;;;;;6.60;4.00;;;;;;;-3.88;91.76;103130.00;10596686;28;20051;-78
2022/11/28 17:08:46;;;;;;;3.42;2.92;;;;;;;-3.87;91.75;103116.47;10612999;28;20051;-78
2022/11/28 17:14:18;;;;;;;10.70;5.93;;;;;;;-3.88;91.74;103114.75;10610101;28;20093;-77
2022/11/28 17:19:20;;;;;;;9.73;5.57;;;;;;;-3.85;91.71;103124.38;10615926;28;20044;-78
2022/11/28 17:24:24;;;;;;;7.20;4.30;;;;;;;-3.80;91.76;103127.56;10613755;28;20046;-77
2022/11/28 17:29:51;;;;;;;;;;;;;;;-3.79;91.94;103123.91;10610702;28;20418;-77
2022/11/28 17:34:53;;;;;;;9.45;5.10;;;;;;;-3.80;91.64;103130.25;10614140;28;19927;-76
2022/11/28 17:45:25;;;;;;;7.70;4.60;;;;;;;-3.77;91.88;103133.53;10589863;28;20051;-78
2022/11/28 17:50:28;;;;;;;8.23;4.75;;;;;;;-3.72;91.83;103123.25;10613804;28;20067;-79
2022/11/28 17:55:33;;;;;;;11.20;5.25;;;;;;;-3.69;91.55;103152.50;10613685;27;20055;-79
2022/11/28 18:00:37;;;;;;;10.18;5.00;;;;;;;-3.71;91.69;103145.56;10603966;28;20041;-79
2022/11/28 18:05:47;;;;;;;7.78;4.30;;;;;;;-3.70;91.69;103136.53;10598215;27;20812;-77
2022/11/28 18:11:08;;;;;;;7.57;4.60;;;;;;;-3.69;91.84;103135.56;10631800;27;20042;-77
2022/11/28 18:16:42;;;;;;;10.18;4.57;;;;;;;-3.67;91.29;103139.81;10614852;27;20848;-75
2022/11/28 18:21:48;;;;;;;8.27;4.47;;;;;;;-3.61;91.34;103146.53;10619926;27;20035;-76
2022/11/28 18:26:51;;;;;;;6.63;4.22;;;;;;;-3.60;91.36;103142.88;10635250;27;20048;-75
2022/11/28 18:31:54;;;;;;;6.72;3.67;;;;;;;-3.60;91.07;103150.91;10598521;28;20449;-76
2022/11/28 18:36:59;;;;;;;8.48;4.55;;;;;;;-3.58;91.17;103151.63;10591034;27;20039;-76
2022/11/28 18:42:06;;;;;;;6.22;3.88;;;;;;;-3.58;91.18;103143.59;10597109;27;20568;-76
2022/11/28 18:47:08;;;;;;;7.10;4.32;;;;;;;-3.60;91.09;103142.88;10604809;27;20449;-76
2022/11/28 18:52:11;;;;;;;7.38;4.57;;;;;;;-3.57;90.64;103157.84;10611364;27;20035;-75
2022/11/28 18:57:13;;;;;;;7.65;5.22;;;;;;;-3.58;91.00;103165.06;10605394;27;20031;-77
2022/11/28 19:02:16;;;;;;;8.40;4.63;;;;;;;-3.58;90.96;103153.47;10607113;28;20048;-76
2022/11/28 19:07:19;;;;;;;9.45;4.72;;;;;;;-3.56;90.61;103156.88;10594423;27;20490;-74
2022/11/28 19:12:21;;;;;;;7.20;4.53;;;;;;;-3.58;90.52;103154.31;10596955;28;20035;-76
2022/11/28 19:17:28;;;;;;;7.70;4.53;;;;;;;-3.56;90.88;103156.88;10613829;27;20032;-76
2022/11/28 19:22:30;;;;;;;7.13;4.90;;;;;;;-3.56;90.86;103167.59;10620148;27;20045;-76
2022/11/28 19:27:32;;;;;;;8.18;4.70;;;;;;;-3.56;90.69;103173.81;10598028;27;20077;-75
2022/11/28 19:32:35;;;;;;;9.02;5.00;;;;;;;-3.56;90.63;103171.16;10596377;28;20490;-76
2022/11/28 19:37:40;;;;;;;6.80;4.20;;;;;;;-3.55;90.68;103169.31;10608434;27;20043;-75
2022/11/28 19:42:42;;;;;;;7.57;3.88;;;;;;;-3.57;90.62;103163.22;10621236;27;20071;-74
2022/11/28 19:47:47;;;;;;;7.32;4.30;;;;;;;-3.57;90.82;103177.50;10580434;28;20035;-75
2022/11/28 19:52:49;;;;;;;8.45;4.40;;;;;;;-3.55;91.11;103172.84;10613164;28;20058;-76
2022/11/28 19:57:52;;;;;;;6.07;3.63;;;;;;;-3.52;90.12;103180.63;10608888;28;20042;-76
2022/11/28 20:02:54;;;;;;;6.40;4.45;;;;;;;-3.53;90.67;103178.94;10605356;28;20043;-76
2022/11/28 20:07:57;;;;;;;6.95;4.22;;;;;;;-3.52;90.96;103169.06;10610455;28;20042;-77
2022/11/28 20:12:59;;;;;;;7.20;4.60;;;;;;;-3.53;90.78;103167.34;10615802;28;20052;-76
2022/11/28 20:18:02;;;;;;;7.15;4.20;;;;;;;-3.53;90.70;103173.56;10595540;28;20031;-76
2022/11/28 20:23:04;;;;;;;5.90;3.72;;;;;;;-3.51;90.79;103174.28;10615330;28;20497;-76
2022/11/28 20:28:07;;;;;;;7.15;4.22;;;;;;;-3.53;90.65;103162.84;10604877;28;20080;-76
2022/11/28 20:33:09;;;;;;;6.47;3.85;;;;;;;-3.53;90.36;103170.88;10599593;28;20421;-76
2022/11/28 20:38:11;;;;;;;6.38;4.13;;;;;;;-3.52;90.82;103177.97;10615678;28;20035;-74
2022/11/28 20:43:13;;;;;;;5.55;3.38;;;;;;;-3.47;90.83;103189.19;10617826;28;20040;-77
2022/11/28 20:48:16;;;;;;;7.07;4.18;;;;;;;-3.49;90.60;103193.81;10614172;28;20035;-76
2022/11/28 20:53:18;;;;;;;6.00;4.10;;;;;;;-3.44;90.29;103198.81;10613870;28;20132;-76
2022/11/28 20:58:20;;;;;;;6.53;4.40;;;;;;;-3.49;90.33;103198.31;10611921;28;20043;-75
2022/11/28 21:03:23;;;;;;;7.25;4.15;;;;;;;-3.53;90.30;103205.78;10633771;27;20047;-75
2022/11/28 21:08:29;;;;;;;5.97;4.40;;;;;;;-3.54;90.65;103193.34;10617473;27;20039;-76
2022/11/28 21:13:31;;;;;;;7.28;3.80;;;;;;;-3.56;90.31;103197.97;10613116;27;20032;-76
2022/11/28 21:18:38;;;;;;;6.40;3.92;;;;;;;-3.56;90.61;103207.88;10621923;27;20045;-75
2022/11/28 21:23:41;;;;;;;6.75;4.38;;;;;;;-3.58;90.38;103205.31;10622682;27;20050;-75
2022/11/28 21:28:46;;;;;;;5.10;3.85;;;;;;;-3.59;90.11;103210.81;10615936;28;20042;-74
2022/11/28 21:33:54;;;;;;;6.32;3.70;;;;;;;-3.62;90.19;103225.31;10618866;27;20539;-76
2022/11/28 21:38:58;;;;;;;5.72;4.10;;;;;;;-3.62;90.40;103209.22;10587113;28;20044;-77
2022/11/28 21:44:00;;;;;;;6.75;4.53;;;;;;;-3.65;90.01;103204.09;10627878;27;20035;-76
2022/11/28 21:49:03;;;;;;;5.82;3.53;;;;;;;-3.65;91.00;103222.88;10593616;27;20055;-77
2022/11/28 21:54:05;;;;;;;5.00;3.60;;;;;;;-3.63;90.42;103223.63;10613497;27;20047;-76
2022/11/28 21:59:08;;;;;;;4.88;3.58;;;;;;;-3.64;90.46;103219.25;10604768;28;20040;-76
2022/11/28 22:04:10;;;;;;;5.75;2.78;;;;;;;-3.65;89.92;103225.56;10603583;27;20497;-76
2022/11/28 22:09:13;;;;;;;5.93;3.83;;;;;;;-3.62;90.10;103233.38;10623043;27;20040;-76
2022/11/28 22:14:16;;;;;;;5.65;3.40;;;;;;;-3.64;90.29;103238.03;10635905;27;20044;-75
2022/11/28 22:19:19;;;;;;;5.22;2.95;;;;;;;-3.64;90.13;103232.66;10595182;27;20614;-76
2022/11/28 22:24:21;;;;;;;5.93;3.85;;;;;;;-3.65;89.62;103245.19;10617616;27;20054;-76
2022/11/28 22:29:24;;;;;;;6.55;3.85;;;;;;;-3.68;89.58;103252.63;10638026;27;20055;-76
2022/11/28 22:34:26;;;;;;;4.75;3.38;;;;;;;-3.67;89.98;103240.91;10609169;27;20075;-76
2022/11/28 22:39:29;;;;;;;6.18;4.32;;;;;;;-3.70;89.81;103233.97;10598849;27;20039;-76
2022/11/28 22:44:31;;;;;;;7.13;4.60;;;;;;;-3.68;90.17;103248.13;10612058;27;20047;-75
2022/11/28 22:49:33;;;;;;;7.20;3.90;;;;;;;-3.67;89.87;103238.25;10612069;27;20043;-75
2022/11/28 22:54:35;;;;;;;8.00;4.30;;;;;;;-3.67;90.16;103247.16;10638210;27;20047;-75
2022/11/28 22:59:38;;;;;;;7.03;4.30;;;;;;;-3.67;89.52;103246.28;10622409;27;20043;-74
2022/11/28 23:04:40;;;;;;;7.15;4.35;;;;;;;-3.63;89.60;103247.78;10603417;28;20032;-75
2022/11/28 23:09:42;;;;;;;7.63;4.57;;;;;;;-3.65;89.66;103253.22;10585943;27;20034;-75
2022/11/28 23:14:47;;;;;;;7.00;3.85;;;;;;;-3.64;89.84;103246.06;10617998;27;20047;-75
2022/11/28 23:19:49;;;;;;;4.85;3.47;;;;;;;-3.62;89.69;103252.16;10625866;27;20055;-76
2022/11/28 23:24:52;;;;;;;4.95;3.67;;;;;;;-3.64;89.45;103251.44;10614502;27;20035;-75
2022/11/28 23:29:54;;;;;;;5.75;3.47;;;;;;;-3.63;89.50;103249.59;10611593;27;20301;-76
2022/11/28 23:34:56;;;;;;;6.05;3.55;;;;;;;-3.63;89.46;103258.50;10627009;27;20043;-75
2022/11/28 23:39:59;;;;;;;6.35;3.80;;;;;;;-3.62;89.81;103262.03;10604191;27;20111;-75